Last Month

Pierce College

Hourly Data | America/Los_Angeles
as of 8/8/22 4:21 PM PDT
Date & Time Temp Max (°F) Temp Min (°F) RH (%) Dew Pt (°F) Latest Rain (In) Soil Temp (°F) Soil Moist (%) Wind Spd (mph) Wind Dir (°) Wind Gust (mph) Leaf Wet Raw (mV) Net Radiation (W/m²) Evap Pan Max Wind (mph) Evap Pan H2O Max Temp (°F) Evap Pan Level (In)
7/31/22 - 2300 79.4 78.2 28 42.4 0.00 86.1 27.4 0.3 ESE | 107 2.7 264 -432 1.2 78.2 3.8
7/31/22 - 2200 81.6 79.1 25 41.7 0.00 86.1 27.4 0.3 E | 80 2.0 264 -432 1.3 80.8 3.8
7/31/22 - 2100 84.2 81.3 27 45.4 0.00 86.2 27.4 0.6 NE | 51 2.8 264 -429 1.6 84.6 3.8
7/31/22 - 2000 89.0 83.6 30 51.3 0.00 85.8 27.4 1.7 WNW | 282 6.5 264 -406 5.2 93.6 3.8
7/31/22 - 1900 90.7 88.8 21 45.2 0.00 85.0 27.3 3.0 SSW | 199 6.4 263 -313 5.0 99.4 3.8
7/31/22 - 1800 94.1 90.3 20 44.4 0.00 85.4 27.3 4.1 S | 172 8.9 263 -286 5.1 111.0 3.8
7/31/22 - 1700 98.3 93.6 20 48.0 0.00 85.6 27.2 2.2 ESE | 115 7.7 262 345 4.4 119.5 3.8
7/31/22 - 1600 96.8 92.6 21 48.9 0.00 85.1 27.2 2.1 NE | 51 5.2 263 477 3.1 117.1 3.8
7/31/22 - 1500 94.8 92.3 22 48.4 0.00 84.8 27.2 2.2 NNE | 31 5.9 263 428 3.6 135.1 3.8
7/31/22 - 1400 93.8 88.4 25 50.7 0.00 84.8 27.1 2.3 NNE | 33 5.2 263 579 3.3 133.7 3.8
7/31/22 - 1300 89.9 87.3 29 52.0 0.00 84.8 27.2 1.8 NNE | 33 3.9 263 310 2.5 116.8 3.8
7/31/22 - 1200 88.5 83.9 33 53.4 0.00 84.6 27.1 1.3 NNE | 23 4.1 263 284 2.3 113.7 3.8
7/31/22 - 1100 84.9 80.4 38 53.8 0.00 84.7 27.2 1.0 E | 97 3.4 264 205 2.5 102.4 3.8
7/31/22 - 1000 81.5 78.0 42 54.6 0.00 84.9 27.2 0.8 ENE | 57 3.1 265 176 1.9 96.8 3.8
7/31/22 - 0900 78.3 74.8 44 52.6 0.00 85.0 27.3 0.7 ENE | 77 3.1 266 79 2.6 95.5 3.8
7/31/22 - 0800 75.1 71.0 49 52.3 0.00 87.1 27.3 0.4 ESE | 105 2.4 266 53 1.7 83.2 3.8
7/31/22 - 0700 71.1 68.3 54 52.2 0.00 85.2 27.3 0.3 SE | 141 1.5 267 -7 0.0 71.8 3.8
7/31/22 - 0600 70.5 68.3 57 53.4 0.00 87.6 27.4 0.1 SSW | 197 0.8 267 -32 0.0 69.9 3.8
7/31/22 - 0500 71.1 70.1 57 54.5 0.00 87.2 27.4 0.3 ESE | 108 1.8 268 -25 0.9 70.8 3.8
7/31/22 - 0400 71.2 70.1 54 53.3 0.00 86.5 27.4 0.2 ENE | 61 1.7 267 -30 0.9 69.5 3.8
7/31/22 - 0300 71.5 70.0 55 53.9 0.00 84.1 27.4 0.1 ESE | 122 1.7 267 -32 0.0 69.8 3.8
7/31/22 - 0200 72.4 71.3 55 54.5 0.00 83.7 27.4 0.6 ENE | 72 2.9 267 -33 1.1 73.3 3.8
7/31/22 - 0100 73.0 71.7 63 59.1 0.00 85.7 27.4 0.9 NE | 44 3.2 267 -26 2.1 73.6 3.8
7/31/22 - 0000 74.4 72.8 55 56.6 0.00 86.0 27.4 0.5 NE | 51 2.9 267 -42 0.8 71.6 3.8
7/30/22 - 2300 76.6 73.9 46 52.5 0.00 83.7 27.4 0.3 ENE | 62 2.4 266 -48 0.8 73.6 3.8
7/30/22 - 2200 80.0 76.4 28 42.4 0.00 84.0 27.4 0.5 NE | 55 3.5 264 -52 0.9 76.1 3.8
7/30/22 - 2100 83.2 79.7 25 42.7 0.00 84.6 27.4 0.6 NE | 48 3.6 264 -56 1.8 83.1 3.8
7/30/22 - 2000 85.4 83.0 25 44.5 0.00 84.9 27.4 2.4 S | 172 7.5 264 -12 4.4 88.7 3.8
7/30/22 - 1900 89.5 85.1 28 50.3 0.00 85.5 27.4 3.3 S | 175 6.4 263 11 4.9 95.9 3.8
7/30/22 - 1800 93.3 89.2 28 54.2 0.00 85.5 27.3 4.2 S | 170 8.7 263 211 5.6 104.6 3.8
7/30/22 - 1700 95.2 92.3 28 55.5 0.00 85.1 27.3 3.3 S | 178 8.0 264 301 4.5 112.5 3.8
7/30/22 - 1600 96.0 93.8 29 57.8 0.00 85.3 27.2 2.2 SW | 229 6.7 263 455 4.7 117.9 3.8
7/30/22 - 1500 95.0 91.3 29 55.8 0.00 84.2 27.2 1.7 NE | 35 8.0 264 532 3.6 118.2 3.8
7/30/22 - 1400 91.9 84.8 33 56.0 0.00 83.8 27.2 1.2 NW | 308 5.0 264 455 3.6 123.5 3.8
7/30/22 - 1300 84.9 77.2 47 58.5 0.00 84.9 27.2 1.1 SSW | 193 3.8 264 400 3.7 121.9 3.8
7/30/22 - 1200 77.3 75.5 56 59.7 0.00 85.0 27.3 0.9 ENE | 57 3.3 267 142 2.1 90.0 3.8
7/30/22 - 1100 76.1 73.3 59 59.4 0.00 85.2 27.3 1.0 NE | 41 3.9 267 161 1.8 90.1 3.8
7/30/22 - 1000 73.9 72.4 58 57.8 0.00 85.3 27.3 1.1 ENE | 59 3.6 268 96 1.8 82.7 3.8
7/30/22 - 0900 72.6 70.8 58 56.5 0.00 85.6 27.3 0.2 NE | 55 1.6 268 51 1.8 78.0 3.8
7/30/22 - 0800 70.9 67.1 62 55.5 0.00 85.6 27.4 0.2 ESE | 102 1.5 268 22 0.6 74.0 3.8
7/30/22 - 0700 67.3 64.4 68 54.9 0.00 85.7 27.4 0.2 SE | 146 1.4 268 -18 1.4 67.7 3.8
7/30/22 - 0600 65.7 64.8 66 53.7 0.00 86.1 27.4 0.3 S | 176 1.6 269 -45 0.7 63.3 3.8
7/30/22 - 0500 67.7 65.7 63 54.0 0.00 86.0 27.4 0.4 SSE | 166 1.8 268 -42 1.1 66.9 3.8
7/30/22 - 0400 67.8 66.8 62 54.0 0.00 86.2 27.5 0.5 SSW | 198 2.1 268 -31 1.2 66.2 3.8
7/30/22 - 0300 67.4 66.4 69 56.4 0.00 86.6 27.5 0.6 S | 173 2.3 268 -40 1.2 65.4 3.8
7/30/22 - 0200 69.0 67.4 66 56.5 0.00 86.5 27.5 0.5 E | 84 2.7 268 -52 1.4 67.3 3.8
7/30/22 - 0100 69.6 68.7 62 55.5 0.00 86.6 27.5 0.5 ENE | 70 2.3 268 -55 0.8 67.1 3.8
7/30/22 - 0000 70.6 69.5 58 54.7 0.00 86.8 27.5 0.4 ENE | 67 3.4 267 -58 0.8 68.2 3.8
7/29/22 - 2300 73.4 69.8 49 52.0 0.00 86.1 27.5 0.8 ESE | 111 3.5 266 -59 2.0 70.9 3.8
7/29/22 - 2200 75.9 73.2 44 51.2 0.00 87.6 27.5 0.4 ENE | 57 2.2 266 -64 0.9 74.2 3.8
7/29/22 - 2100 80.9 75.7 40 52.1 0.00 86.5 27.5 0.5 NNE | 26 2.7 266 -67 1.5 80.7 3.8
7/29/22 - 2000 85.2 80.7 33 51.3 0.00 86.2 27.5 1.9 SW | 228 6.0 264 -48 4.0 89.8 3.8
7/29/22 - 1900 89.3 84.9 31 52.7 0.00 85.8 27.4 3.4 S | 188 8.3 263 61 4.8 97.3 3.8
7/29/22 - 1800 91.9 88.9 25 49.2 0.00 85.5 27.4 4.2 S | 174 8.7 263 202 6.3 105.1 3.8
7/29/22 - 1700 97.7 91.4 18 45.3 0.00 85.3 27.4 3.8 S | 189 9.1 262 333 5.5 113.7 3.8
7/29/22 - 1600 98.4 96.1 19 48.4 0.00 85.2 27.3 2.4 NE | 54 5.5 262 444 3.3 121.4 3.8
7/29/22 - 1500 98.4 96.0 18 47.2 0.00 85.0 27.2 2.2 NE | 47 5.6 262 525 3.1 134.0 3.8
7/29/22 - 1400 96.1 91.2 20 46.5 0.00 84.8 27.2 2.0 NE | 55 5.7 262 570 3.8 137.7 3.8
7/29/22 - 1300 93.0 87.7 24 48.1 0.00 82.2 27.1 1.7 NNE | 25 4.9 262 579 4.1 137.9 3.8
7/29/22 - 1200 88.6 83.5 33 53.4 0.00 82.3 27.1 1.6 NNE | 18 5.4 263 540 4.4 132.6 3.8
7/29/22 - 1100 84.2 78.5 43 56.2 0.00 82.2 27.1 2.0 NE | 36 4.5 264 465 2.5 125.6 3.8
7/29/22 - 1000 78.4 74.9 51 57.2 0.00 85.0 27.2 2.2 NE | 40 5.4 264 355 3.5 117.4 3.8
7/29/22 - 0900 75.2 69.2 57 55.6 0.00 85.2 27.3 1.0 ENE | 62 3.9 265 86 2.1 98.7 3.8
7/29/22 - 0800 69.3 64.8 66 55.8 0.00 85.4 27.4 0.4 SE | 131 2.3 268 -8 1.4 71.6 3.8
7/29/22 - 0700 64.9 61.8 74 54.5 0.00 85.4 27.4 0.3 SSE | 147 1.4 270 -32 1.2 62.4 3.8
7/29/22 - 0600 63.4 62.0 75 54.7 0.00 85.7 27.4 0.1 SSE | 166 1.1 271 -46 0.2 58.3 3.8
7/29/22 - 0500 64.6 63.2 74 55.7 0.00 85.7 27.5 0.3 S | 180 1.8 270 -49 1.1 60.7 3.8
7/29/22 - 0400 66.4 64.0 71 55.6 0.00 86.1 27.4 0.5 S | 188 2.3 270 -52 1.1 63.4 3.8
7/29/22 - 0300 68.0 66.2 68 56.2 0.00 86.2 27.5 0.3 E | 87 2.1 269 -55 1.7 65.5 3.8
7/29/22 - 0200 68.7 67.6 64 55.5 0.00 86.1 27.5 0.2 ENE | 67 1.9 268 -52 0.8 64.4 3.8
7/29/22 - 0100 70.4 68.5 60 54.5 0.00 86.4 27.5 0.4 SE | 132 2.7 268 -55 1.0 64.8 3.8
7/29/22 - 0000 71.2 70.1 52 52.0 0.00 86.4 27.5 0.1 SSE | 160 2.1 266 -56 0.7 67.0 3.8
7/28/22 - 2300 73.3 71.0 50 52.7 0.00 86.4 27.5 0.2 SE | 132 2.4 266 -57 0.4 69.9 3.8
7/28/22 - 2200 76.8 73.0 45 52.3 0.00 86.3 27.5 0.4 ENE | 76 2.6 266 -64 1.2 75.6 3.8
7/28/22 - 2100 81.7 76.8 26 41.3 0.00 88.4 27.5 0.9 SSE | 147 3.3 264 -71 2.0 82.4 3.8
7/28/22 - 2000 88.3 81.4 19 38.0 0.00 87.3 27.5 1.5 ESE | 119 4.7 263 -47 2.4 92.5 3.8
7/28/22 - 1900 90.3 88.1 14 34.7 0.00 86.3 27.4 1.5 ENE | 78 4.2 261 65 2.6 94.7 3.8
7/28/22 - 1800 89.9 88.1 15 35.7 0.00 83.5 27.5 2.0 ESE | 119 7.2 262 157 3.5 106.7 3.8
7/28/22 - 1700 92.0 88.3 18 40.7 0.00 88.6 27.4 2.8 ESE | 122 6.7 261 252 4.9 116.6 3.8
7/28/22 - 1600 93.6 90.3 17 40.8 0.00 85.2 27.4 2.1 ESE | 114 6.0 262 260 5.0 125.6 3.8
7/28/22 - 1500 93.6 90.2 16 39.2 0.00 85.2 27.3 2.5 SE | 129 8.2 262 470 6.0 134.1 3.8
7/28/22 - 1400 92.5 88.7 22 46.5 0.00 85.3 27.3 2.7 NE | 53 6.4 262 469 4.9 137.1 3.8
7/28/22 - 1300 89.3 84.5 29 50.8 0.00 85.4 27.3 2.4 NE | 45 6.6 263 465 3.7 138.2 3.8
7/28/22 - 1200 85.0 79.5 41 56.1 0.00 85.3 27.3 2.1 NE | 45 5.3 264 298 3.0 128.4 3.8
7/28/22 - 1100 79.8 73.5 49 56.6 0.00 85.7 27.3 1.8 NE | 44 4.7 265 162 2.5 122.0 3.8
7/28/22 - 1000 74.8 71.0 58 56.9 0.00 85.3 27.4 1.5 ENE | 60 4.7 266 -8 3.0 102.3 3.8
7/28/22 - 0900 71.0 67.4 65 57.0 0.00 84.3 27.4 1.0 ENE | 62 3.8 268 -158 1.8 82.8 3.8
7/28/22 - 0800 67.7 64.9 70 56.7 0.00 83.4 27.5 0.8 ENE | 72 2.9 269 -183 1.9 73.0 3.8
7/28/22 - 0700 65.0 61.4 79 56.2 0.00 83.4 27.5 0.2 SE | 129 1.5 270 -188 1.2 65.1 3.8
7/28/22 - 0600 62.7 61.7 79 55.6 0.00 85.2 27.5 0.4 S | 179 1.9 273 -213 1.1 60.0 3.8
7/28/22 - 0500 64.0 62.6 77 56.0 0.00 87.5 27.5 0.5 S | 182 2.8 271 -191 1.2 62.5 3.8
7/28/22 - 0400 63.2 62.4 78 55.8 0.00 88.7 27.6 0.6 S | 182 2.7 271 -169 1.2 60.8 3.8
7/28/22 - 0300 64.1 62.8 76 56.0 0.00 88.3 27.6 0.4 SE | 131 2.6 271 -170 0.7 61.5 3.8
7/28/22 - 0200 65.6 63.6 75 56.6 0.00 86.4 27.6 0.5 E | 82 3.0 270 -178 1.5 64.1 3.8
7/28/22 - 0100 67.3 65.5 71 56.7 0.00 84.9 27.6 1.1 ENE | 63 3.9 270 -177 2.5 65.8 3.8
7/28/22 - 0000 70.4 67.2 66 57.0 0.00 83.9 27.7 0.9 ENE | 59 2.9 269 -174 1.8 70.8 3.8
7/27/22 - 2300 73.7 70.2 58 56.2 0.00 88.7 27.6 1.1 ENE | 69 3.6 268 -165 2.2 74.6 3.8
7/27/22 - 2200 76.3 73.7 51 55.6 0.00 87.8 27.6 0.8 ENE | 70 3.0 266 -158 1.2 76.9 3.8
7/27/22 - 2100 81.3 76.2 43 54.4 0.00 86.7 27.6 1.0 E | 94 4.3 266 -154 1.9 80.7 3.8
7/27/22 - 2000 89.8 81.2 32 50.9 0.00 85.8 27.6 0.8 ENE | 65 4.3 264 -150 3.3 92.9 3.8
7/27/22 - 1900 93.8 89.6 18 41.4 0.00 88.8 27.6 1.6 WNW | 289 6.6 262 -141 5.1 97.5 3.8
7/27/22 - 1800 94.9 92.0 22 49.0 0.00 88.7 27.5 1.4 N | 8 5.3 263 -8 3.1 108.2 3.8
7/27/22 - 1700 97.5 93.9 22 49.9 0.00 86.5 27.4 1.4 NNW | 337 11.9 262 129 7.8 112.6 3.8
7/27/22 - 1600 95.4 92.3 26 54.0 0.00 86.2 27.4 2.5 ENE | 73 7.6 263 269 6.6 121.2 3.8
7/27/22 - 1500 94.2 91.3 28 55.0 0.00 85.6 27.4 2.5 E | 79 6.5 263 370 4.5 136.3 3.8
7/27/22 - 1400 93.5 88.8 29 55.1 0.00 87.0 27.3 1.8 NE | 54 4.8 263 379 3.4 144.0 3.8
7/27/22 - 1300 89.8 85.1 32 54.3 0.00 86.7 27.2 1.4 NNE | 15 6.2 263 373 3.3 143.7 3.8
7/27/22 - 1200 86.8 80.4 42 58.0 0.00 86.4 27.2 1.4 NNE | 22 4.1 264 289 3.7 137.2 3.8
7/27/22 - 1100 80.4 75.4 51 58.3 0.00 86.6 27.3 1.8 ENE | 64 4.7 265 19 4.3 126.3 3.8
7/27/22 - 1000 75.5 69.0 60 58.1 0.00 87.1 27.4 1.0 NNE | 25 4.1 266 -156 2.4 117.6 3.8
7/27/22 - 0900 69.0 64.6 73 57.5 0.00 88.1 27.4 0.8 NE | 53 3.6 268 -390 1.6 87.7 3.8
7/27/22 - 0800 64.7 61.5 80 56.8 0.00 88.2 27.5 0.6 ENE | 74 3.5 270 -446 1.3 69.2 3.8
7/27/22 - 0700 61.6 58.5 86 55.6 0.00 88.5 27.5 0.4 SSE | 166 2.2 273 -498 0.0 61.7 3.8
7/27/22 - 0600 60.0 58.4 87 55.2 0.00 88.0 27.6 0.5 S | 172 1.8 252 -424 0.9 55.2 3.8
7/27/22 - 0500 60.5 59.4 84 55.2 0.00 88.7 27.6 0.1 SE | 127 1.3 258 -125 0.0 57.4 3.8
7/27/22 - 0400 62.1 59.8 82 55.2 0.00 88.3 27.6 0.4 SSE | 162 1.8 274 -55 0.8 59.6 3.8
7/27/22 - 0300 62.7 61.8 80 55.7 0.00 86.5 27.7 0.6 ESE | 114 2.2 272 -64 1.3 59.5 3.8
7/27/22 - 0200 65.0 62.5 75 55.6 0.00 86.8 27.6 0.3 ESE | 108 1.9 271 -66 0.4 62.1 3.8
7/27/22 - 0100 66.5 64.7 70 55.7 0.00 86.4 27.7 0.5 ENE | 67 2.1 270 -68 1.0 63.7 3.8
7/27/22 - 0000 68.6 66.3 67 56.0 0.00 87.1 27.7 0.8 E | 87 4.1 269 -73 1.4 66.0 3.8
7/26/22 - 2300 71.4 68.6 60 55.3 0.00 86.8 27.7 0.5 ENE | 64 2.7 268 -74 1.9 70.0 3.8
7/26/22 - 2200 75.0 71.3 53 54.9 0.00 87.0 27.7 0.7 E | 85 3.5 267 -76 1.6 73.6 3.8
7/26/22 - 2100 79.6 74.8 45 54.6 0.00 86.8 27.7 1.1 ESE | 109 4.7 266 -78 2.7 81.1 3.8
7/26/22 - 2000 87.5 79.5 38 54.4 0.00 86.8 27.7 3.3 WSW | 240 6.6 266 -54 4.4 90.5 3.8
7/26/22 - 1900 89.6 87.0 28 51.5 0.00 85.7 27.6 1.1 NNE | 33 5.6 264 60 3.7 97.0 3.8
7/26/22 - 1800 93.3 89.2 25 50.4 0.00 86.3 27.6 1.9 NE | 47 5.0 263 203 2.4 105.6 3.8
7/26/22 - 1700 95.4 92.5 23 50.1 0.00 86.0 27.5 2.5 NE | 41 5.4 263 341 2.5 113.9 3.8
7/26/22 - 1600 95.0 93.1 25 53.2 0.00 84.5 27.4 2.2 NE | 53 6.3 263 460 2.8 121.0 3.8
7/26/22 - 1500 93.9 91.5 29 56.0 0.00 84.5 27.4 2.4 NE | 46 6.1 264 544 3.8 133.0 3.8
7/26/22 - 1400 91.7 88.2 36 59.5 0.00 82.0 27.4 2.4 NE | 38 6.2 264 598 3.8 138.1 3.8
7/26/22 - 1300 89.4 84.7 40 60.1 0.00 85.4 27.3 1.6 NNE | 28 5.9 264 604 3.7 144.7 3.8
7/26/22 - 1200 86.0 79.9 46 59.8 0.00 85.7 27.3 1.6 NE | 42 5.0 265 567 3.2 133.1 3.8
7/26/22 - 1100 79.9 74.9 54 59.7 0.00 88.0 27.3 1.9 NE | 47 4.8 266 489 2.9 130.1 3.8
7/26/22 - 1000 75.4 69.2 63 59.0 0.00 88.2 27.4 1.7 NE | 43 5.0 266 378 3.9 119.8 3.8
7/26/22 - 0900 69.2 64.5 76 58.6 0.00 87.7 27.5 1.6 ESE | 119 4.8 268 104 3.2 95.4 3.8
7/26/22 - 0800 64.9 63.3 82 58.5 0.00 86.8 27.6 0.9 SSE | 153 4.2 271 44 2.6 73.5 3.8
7/26/22 - 0700 64.0 62.5 84 58.4 0.00 86.3 27.6 0.5 NNE | 22 2.4 272 1 1.5 67.8 3.8
7/26/22 - 0600 62.9 62.4 85 58.2 0.00 84.5 27.6 1.0 SE | 126 3.1 273 -10 1.5 65.2 3.8
7/26/22 - 0500 63.0 62.0 86 58.2 0.00 84.1 27.6 0.6 ESE | 103 3.2 273 -9 2.1 64.7 3.8
7/26/22 - 0400 62.7 62.2 86 58.0 0.00 83.1 27.6 1.0 E | 84 3.1 273 -11 2.0 64.7 3.8
7/26/22 - 0300 62.7 62.1 85 57.9 0.00 84.2 27.7 0.9 ENE | 59 2.9 274 -35 1.5 64.1 3.8
7/26/22 - 0200 63.5 62.4 82 57.6 0.00 84.8 27.7 0.7 ENE | 57 3.5 274 -54 1.2 63.3 3.8
7/26/22 - 0100 65.1 63.3 79 57.6 0.00 87.0 27.7 0.7 NE | 55 3.2 272 -57 2.1 64.0 3.8
7/26/22 - 0000 66.9 65.0 74 57.6 0.00 85.3 27.7 0.9 NE | 43 2.8 271 -62 0.8 64.8 3.8
7/25/22 - 2300 70.4 66.6 69 57.8 0.00 84.7 27.7 0.8 ENE | 60 3.5 270 -66 1.7 67.4 3.8
7/25/22 - 2200 72.9 69.8 63 57.7 0.00 83.7 27.7 0.3 ENE | 74 1.8 268 -68 1.3 71.5 3.8
7/25/22 - 2100 78.2 72.7 50 55.4 0.00 84.0 27.7 1.0 E | 79 3.4 267 -73 2.0 77.9 3.8
7/25/22 - 2000 85.3 78.2 40 54.5 0.00 84.1 27.7 2.8 S | 188 6.7 266 -49 4.6 89.4 3.8
7/25/22 - 1900 90.0 85.2 34 55.8 0.00 84.1 27.7 3.8 SSW | 200 8.0 264 75 5.2 96.1 3.8
7/25/22 - 1800 91.4 89.1 32 56.3 0.00 85.9 27.6 3.8 S | 189 8.3 264 221 5.1 102.3 3.8
7/25/22 - 1700 91.2 89.3 32 56.5 0.00 85.6 27.5 4.8 SSW | 208 9.0 264 358 5.7 108.9 3.8
7/25/22 - 1600 94.6 90.6 31 58.4 0.00 84.9 27.4 2.9 E | 79 9.4 264 446 5.1 113.2 3.8
7/25/22 - 1500 94.1 91.3 32 59.0 0.00 84.9 27.4 2.6 ENE | 59 7.0 264 523 5.3 131.8 3.8
7/25/22 - 1400 93.0 87.6 36 60.2 0.00 84.8 27.4 1.6 NE | 51 5.0 264 576 3.6 137.9 3.8
7/25/22 - 1300 89.2 83.8 42 60.8 0.00 84.7 27.4 1.5 NNE | 21 5.5 265 589 3.9 135.8 3.8
7/25/22 - 1200 84.3 79.0 48 60.6 0.00 84.9 27.4 1.5 NNE | 29 5.9 265 553 4.3 128.6 3.8
7/25/22 - 1100 78.9 71.3 58 60.1 0.00 84.7 27.4 1.6 ENE | 63 5.1 266 477 3.5 121.7 3.8
7/25/22 - 1000 72.0 66.0 70 59.7 0.00 84.6 27.4 1.9 E | 98 5.7 267 371 4.4 107.9 3.8
7/25/22 - 0900 66.3 64.0 80 59.0 0.00 85.0 27.6 1.2 SE | 130 4.5 270 91 3.1 78.5 3.8
7/25/22 - 0800 64.7 63.3 84 58.7 0.00 85.7 27.6 1.2 ESE | 105 3.6 272 25 2.2 70.3 3.8
7/25/22 - 0700 63.6 62.8 84 58.6 0.00 86.0 27.6 0.8 E | 90 3.1 272 -9 1.3 67.2 3.8
7/25/22 - 0600 63.1 62.3 86 58.4 0.00 83.6 27.6 0.9 S | 169 2.7 273 -18 1.4 65.8 3.8
7/25/22 - 0500 62.9 62.2 86 58.4 0.00 83.2 27.6 0.5 ENE | 75 2.6 273 -21 1.6 65.4 3.8
7/25/22 - 0400 62.7 62.1 87 58.4 0.00 83.4 27.7 0.8 E | 90 3.7 274 -16 2.5 65.4 3.8
7/25/22 - 0300 63.0 62.2 84 57.8 0.00 84.8 27.7 0.8 ENE | 66 3.0 274 -44 1.4 64.3 3.8
7/25/22 - 0200 63.6 62.8 82 57.6 0.00 85.7 27.7 0.7 E | 87 2.8 274 -59 1.4 61.9 3.8
7/25/22 - 0100 64.3 63.5 80 57.5 0.00 86.5 27.7 0.5 E | 95 4.2 273 -61 1.4 61.1 3.8
7/25/22 - 0000 66.0 63.8 76 57.2 0.00 86.6 27.7 0.3 E | 98 1.6 272 -65 1.2 63.4 3.8
7/24/22 - 2300 66.9 65.3 73 57.1 0.00 87.2 27.7 0.4 NE | 49 2.6 270 -67 0.9 67.4 3.8
7/24/22 - 2200 70.7 66.7 69 57.7 0.00 87.4 27.7 1.0 NE | 51 3.1 269 -69 1.6 70.3 3.8
7/24/22 - 2100 74.6 70.5 62 58.8 0.00 86.8 27.7 1.0 NE | 47 3.2 268 -74 2.5 75.3 3.8
7/24/22 - 2000 82.1 74.4 53 59.8 0.00 85.8 27.7 1.5 ENE | 60 4.0 267 -49 2.2 85.1 3.8
7/24/22 - 1900 90.2 81.8 42 59.8 0.00 84.8 27.7 2.4 N | 360 7.6 266 73 5.7 94.0 3.8
7/24/22 - 1800 93.2 88.8 35 59.2 0.00 84.2 27.6 1.8 WNW | 300 8.3 265 216 5.9 103.2 3.8
7/24/22 - 1700 95.0 91.2 35 61.8 0.00 83.9 27.5 1.8 NNE | 32 5.4 265 348 2.8 109.7 3.8
7/24/22 - 1600 94.9 92.8 35 62.2 0.00 84.0 27.5 2.4 NE | 55 6.4 265 462 3.0 116.6 3.8
7/24/22 - 1500 94.7 90.8 35 61.4 0.00 83.5 27.5 2.2 ENE | 70 7.3 265 546 4.7 130.9 3.8
7/24/22 - 1400 92.9 86.2 38 60.0 0.00 83.3 27.4 1.7 ENE | 74 5.3 264 596 4.0 139.8 3.8
7/24/22 - 1300 87.3 82.0 44 61.4 0.00 83.6 27.4 1.4 NE | 42 4.8 265 604 4.0 136.6 3.8
7/24/22 - 1200 82.7 76.3 54 61.1 0.00 83.6 27.4 1.3 NNE | 26 4.4 266 567 3.0 130.4 3.8
7/24/22 - 1100 76.8 68.4 65 60.5 0.00 82.3 27.4 1.1 NNE | 22 4.8 266 438 3.8 120.3 3.8
7/24/22 - 1000 68.6 65.4 79 59.9 0.00 82.6 27.6 1.2 ESE | 108 5.0 270 135 3.6 83.4 3.8
7/24/22 - 0900 66.2 64.2 82 59.7 0.00 82.8 27.6 1.0 E | 99 4.8 271 44 2.1 72.8 3.8
7/24/22 - 0800 64.7 64.2 84 59.6 0.00 86.0 27.6 0.7 E | 92 3.2 272 7 1.7 70.4 3.8
7/24/22 - 0700 64.4 63.8 85 59.4 0.00 85.8 27.6 0.5 ENE | 60 2.3 273 -16 1.5 66.5 3.8
7/24/22 - 0600 64.0 63.1 86 59.2 0.00 85.9 27.7 0.7 NE | 42 1.8 273 -20 0.6 65.2 3.8
7/24/22 - 0500 63.4 62.4 86 58.7 0.00 86.6 27.7 0.4 ENE | 58 1.7 274 -37 1.3 61.5 3.8
7/24/22 - 0400 63.0 62.2 86 58.2 0.00 86.5 27.7 0.1 ESE | 110 1.1 248 -40 0.0 59.5 3.8
7/24/22 - 0300 63.7 62.6 84 58.2 0.00 86.9 27.7 0.0 SE | 139 1.2 274 -46 0.0 61.1 3.8
7/24/22 - 0200 64.6 63.3 82 58.4 0.00 86.8 27.7 0.2 ESE | 105 2.2 275 -58 0.0 63.3 3.8
7/24/22 - 0100 65.8 64.2 80 58.4 0.00 85.7 27.8 0.3 ESE | 117 2.0 273 -56 0.0 65.0 3.8
7/24/22 - 0000 67.9 65.7 75 58.8 0.00 86.0 27.8 0.5 NE | 49 2.4 271 -60 1.2 66.6 3.8
7/23/22 - 2300 68.5 67.5 72 58.5 0.00 87.2 27.8 0.6 NE | 48 2.2 270 -63 1.1 67.7 3.8
7/23/22 - 2200 71.0 68.4 68 58.4 0.00 84.8 27.8 1.0 NE | 55 3.5 269 -65 1.6 70.6 3.8
7/23/22 - 2100 76.4 70.9 60 58.8 0.00 84.4 27.8 1.2 NE | 56 4.8 268 -69 2.7 76.6 3.8
7/23/22 - 2000 82.5 76.3 51 59.4 0.00 84.8 27.8 1.3 NE | 39 4.3 266 -44 1.3 86.2 3.8
7/23/22 - 1900 89.1 82.3 41 59.4 0.00 85.1 27.7 1.8 NNE | 28 5.6 266 70 2.3 94.5 3.8
7/23/22 - 1800 91.1 88.4 38 61.1 0.00 83.5 27.7 3.9 SW | 229 8.4 264 218 5.8 102.9 3.8
7/23/22 - 1700 95.3 90.6 31 58.0 0.00 83.0 27.6 2.7 ENE | 70 9.7 264 347 7.4 112.5 3.8
7/23/22 - 1600 95.5 92.6 30 58.2 0.00 87.0 27.5 2.1 ENE | 71 6.6 264 464 3.9 122.4 3.8
7/23/22 - 1500 94.1 89.5 32 58.3 0.00 86.7 27.5 1.9 ENE | 59 5.3 264 546 4.4 131.4 3.8
7/23/22 - 1400 92.2 85.5 36 58.2 0.00 86.1 27.4 1.8 NNE | 33 6.0 264 598 4.4 136.4 3.8
7/23/22 - 1300 87.0 81.8 41 58.2 0.00 86.0 27.4 1.7 NE | 48 5.8 264 606 3.3 137.9 3.8
7/23/22 - 1200 82.9 78.6 48 59.7 0.00 85.5 27.4 1.8 NE | 35 5.5 264 562 3.6 131.0 3.8
7/23/22 - 1100 79.7 74.0 55 59.8 0.00 86.4 27.4 1.4 NNE | 29 4.6 265 469 2.9 125.3 3.8
7/23/22 - 1000 74.5 67.8 65 59.2 0.00 86.6 27.5 1.3 NE | 37 4.6 266 342 3.0 115.5 3.8
7/23/22 - 0900 68.2 66.2 76 59.0 0.00 87.5 27.6 1.4 SSE | 153 4.4 268 104 3.2 86.2 3.8
7/23/22 - 0800 66.3 64.9 80 59.2 0.00 88.7 27.7 1.3 SSE | 161 4.3 270 28 2.5 75.7 3.8
7/23/22 - 0700 65.1 64.4 82 59.2 0.00 88.6 27.7 0.9 SSE | 158 3.2 271 -20 2.3 70.5 3.8
7/23/22 - 0600 65.2 64.4 82 59.4 0.00 87.6 27.7 0.5 NE | 46 2.8 272 -29 1.4 68.6 3.8
7/23/22 - 0500 64.6 63.9 84 59.3 0.00 86.8 27.7 0.9 ENE | 60 3.8 272 -32 2.4 67.0 3.8
7/23/22 - 0400 65.6 64.2 81 58.9 0.00 85.4 27.7 0.6 NE | 49 2.3 275 -71 1.4 62.5 3.8
7/23/22 - 0300 65.6 65.1 78 58.3 0.00 84.8 27.7 0.4 E | 93 3.1 273 -71 1.8 62.2 3.8
7/23/22 - 0200 65.8 64.9 74 57.0 0.00 84.0 27.8 0.1 SSE | 150 1.4 271 -64 0.0 61.5 3.8
7/23/22 - 0100 67.9 65.5 70 56.9 0.00 87.0 27.8 0.2 SE | 140 2.3 270 -67 0.0 63.9 3.8
7/23/22 - 0000 69.3 67.5 65 56.1 0.00 87.1 27.8 0.1 ESE | 108 1.7 268 -69 0.3 64.0 3.8
7/22/22 - 2300 72.3 69.0 58 55.4 0.00 85.1 27.8 0.2 ENE | 67 2.1 267 -73 0.8 68.0 3.8
7/22/22 - 2200 75.2 72.1 50 54.2 0.00 84.4 27.8 0.6 NE | 56 2.8 266 -76 1.9 72.2 3.8
7/22/22 - 2100 81.1 75.2 44 53.8 0.00 84.3 27.8 0.7 ENE | 63 3.7 266 -77 2.2 79.3 3.8
7/22/22 - 2000 87.8 80.9 35 53.6 0.00 84.8 27.8 1.4 ESE | 102 4.8 264 -51 2.2 89.6 3.8
7/22/22 - 1900 90.6 87.8 27 51.5 0.00 87.0 27.7 1.7 E | 94 4.9 263 65 3.0 94.7 3.8
7/22/22 - 1800 91.6 89.2 29 53.6 0.00 85.4 27.7 3.1 S | 185 7.8 263 212 4.9 104.7 3.8
7/22/22 - 1700 94.7 91.3 24 50.7 0.00 85.2 27.7 3.2 SSE | 156 8.4 263 342 5.9 111.0 3.8
7/22/22 - 1600 95.9 93.0 23 51.3 0.00 87.0 27.6 2.5 ENE | 69 7.0 263 456 3.3 117.7 3.8
7/22/22 - 1500 95.0 92.3 27 54.9 0.00 84.4 27.6 2.3 NE | 43 5.7 263 533 2.7 131.6 3.8
7/22/22 - 1400 93.9 89.7 29 54.9 0.00 83.8 27.5 2.3 NE | 43 6.4 263 589 3.5 137.9 3.8
7/22/22 - 1300 90.1 84.5 33 55.0 0.00 83.6 27.4 1.7 NE | 34 5.8 263 592 3.3 139.5 3.8
7/22/22 - 1200 85.4 79.8 42 57.0 0.00 83.4 27.5 1.8 NE | 56 5.2 263 515 3.8 131.6 3.8
7/22/22 - 1100 80.6 72.8 54 58.6 0.00 83.9 27.5 1.4 NNE | 33 5.6 264 438 3.2 124.7 3.8
7/22/22 - 1000 73.3 70.2 64 59.2 0.00 85.4 27.5 1.8 NE | 38 4.4 266 260 3.1 113.2 3.8
7/22/22 - 0900 70.3 67.2 70 58.4 0.00 82.9 27.7 1.3 NE | 42 3.7 267 -108 1.6 85.1 3.8
7/22/22 - 0800 67.4 64.4 75 57.9 0.00 84.3 27.7 0.8 E | 94 3.4 270 -184 1.6 67.7 3.8
7/22/22 - 0700 64.4 60.5 83 56.9 0.00 86.8 27.7 0.5 SSE | 166 1.9 272 -193 1.4 61.4 3.8
7/22/22 - 0600 62.6 61.3 82 56.6 0.00 85.1 27.7 0.2 S | 174 1.4 270 -232 0.0 56.4 3.8
7/22/22 - 0500 63.0 62.1 77 55.1 0.00 87.6 27.8 0.2 SSE | 167 1.8 273 -135 1.0 58.0 3.8
7/22/22 - 0400 64.4 62.4 72 54.3 0.00 89.7 27.8 0.3 SSE | 165 1.7 270 -61 0.8 59.6 3.8
7/22/22 - 0300 65.2 63.9 71 54.8 0.00 89.5 27.8 0.5 S | 177 2.3 269 -59 1.1 60.5 3.8
7/22/22 - 0200 67.7 65.1 69 55.9 0.00 88.3 27.9 0.3 S | 178 2.2 269 -60 1.2 62.0 3.8
7/22/22 - 0100 68.4 67.2 62 54.2 0.00 87.4 27.9 0.5 SSE | 157 2.5 268 -61 1.0 61.9 3.8
7/22/22 - 0000 70.6 68.2 60 54.9 0.00 85.3 27.9 0.1 S | 170 0.8 267 -63 0.0 63.3 3.8
7/21/22 - 2300 73.4 70.4 54 54.0 0.00 84.9 27.9 0.1 SSE | 158 1.2 266 -66 0.0 68.8 3.8
7/21/22 - 2200 75.8 73.2 44 51.3 0.00 84.3 27.9 0.6 ENE | 75 2.9 266 -71 1.3 72.3 3.8
7/21/22 - 2100 79.5 75.7 36 48.9 0.00 84.0 27.9 1.5 S | 181 4.7 264 -72 3.6 80.2 3.8
7/21/22 - 2000 85.2 79.2 35 51.4 0.00 84.2 27.9 2.6 S | 173 6.5 264 -36 4.5 90.6 3.8
7/21/22 - 1900 89.7 85.1 31 52.9 0.00 86.4 27.8 3.9 S | 174 8.0 263 77 5.0 99.3 3.8
7/21/22 - 1800 92.3 89.6 28 53.3 0.00 86.4 27.8 4.6 SSE | 159 8.9 263 220 5.1 108.2 3.8
7/21/22 - 1700 98.1 91.7 24 51.6 0.00 84.1 27.7 3.9 S | 184 8.3 262 350 5.4 112.8 3.8
7/21/22 - 1600 99.1 95.8 20 49.6 0.00 83.0 27.7 2.8 ENE | 74 7.9 262 456 4.0 118.4 3.8
7/21/22 - 1500 98.5 94.5 21 49.9 0.00 85.0 27.6 2.3 NE | 56 6.4 262 517 3.5 133.9 3.8
7/21/22 - 1400 96.2 92.6 18 45.3 0.00 85.2 27.5 2.1 ENE | 59 6.4 261 527 4.0 146.3 3.8
7/21/22 - 1300 94.8 90.0 19 44.4 0.00 85.3 27.5 1.7 NE | 53 5.7 261 584 3.9 146.9 3.8
7/21/22 - 1200 90.4 86.4 23 45.3 0.00 84.9 27.5 1.8 NE | 50 5.6 261 507 4.5 139.5 3.8
7/21/22 - 1100 86.3 81.5 27 46.2 0.00 85.5 27.5 2.0 NE | 45 5.0 261 415 2.7 133.7 3.8
7/21/22 - 1000 81.6 76.2 29 44.8 0.00 84.5 27.6 1.6 NE | 48 5.5 262 336 3.3 124.3 3.8
7/21/22 - 0900 76.3 71.7 39 46.8 0.00 85.3 27.7 1.1 NE | 45 4.4 263 -13 2.3 92.6 3.8
7/21/22 - 0800 71.7 66.6 49 49.1 0.00 86.0 27.8 1.0 ESE | 120 3.3 266 -132 1.6 68.3 3.8
7/21/22 - 0700 66.6 62.1 64 51.0 0.00 86.2 27.8 0.8 SSE | 148 2.2 267 -72 1.0 60.6 3.8
7/21/22 - 0600 63.9 62.3 66 51.6 0.00 86.5 27.8 0.2 SSE | 159 1.6 268 -55 0.0 57.7 3.8
7/21/22 - 0500 65.0 63.3 64 51.6 0.00 86.6 27.8 0.1 SE | 146 0.9 268 -54 0.0 59.9 3.8
7/21/22 - 0400 66.0 64.6 61 51.4 0.00 87.4 27.9 0.2 S | 176 1.2 267 -52 0.7 61.9 3.8
7/21/22 - 0300 68.5 65.7 56 50.8 0.00 87.4 27.9 0.1 SSE | 147 1.2 266 -55 0.3 66.5 3.8
7/21/22 - 0200 68.8 68.0 47 47.2 0.00 87.7 27.9 0.4 ESE | 105 2.5 266 -57 1.1 66.2 3.8
7/21/22 - 0100 71.3 68.5 38 43.4 0.00 87.7 28.0 0.2 SE | 138 2.2 264 -58 0.0 66.0 3.8
7/21/22 - 0000 73.4 70.6 36 43.2 0.00 87.6 28.0 0.2 SE | 132 1.7 264 -58 0.0 67.9 3.8
7/20/22 - 2300 75.6 73.2 32 42.6 0.00 87.5 28.0 0.4 ESE | 111 1.9 264 -63 0.8 71.0 3.8
7/20/22 - 2200 79.2 75.4 35 47.1 0.00 87.4 28.0 0.4 ESE | 110 2.9 264 -67 1.4 75.1 3.8
7/20/22 - 2100 84.7 79.2 33 49.2 0.00 87.3 28.0 0.3 ENE | 70 2.1 263 -74 0.6 86.0 3.8
7/20/22 - 2000 93.6 84.5 14 32.5 0.00 89.3 27.9 1.0 N | 357 4.4 262 -51 4.1 98.1 3.8
7/20/22 - 1900 96.5 93.4 11 31.3 0.00 89.5 27.9 1.3 NW | 309 7.5 261 81 6.0 102.0 3.8
7/20/22 - 1800 98.9 95.6 11 34.7 0.00 89.5 27.8 3.6 W | 263 9.9 261 201 7.0 109.8 3.8
7/20/22 - 1700 100.5 97.1 15 43.4 0.00 87.2 27.8 2.4 WNW | 301 7.7 261 340 5.4 113.9 3.8
7/20/22 - 1600 99.5 95.3 17 45.9 0.00 89.5 27.7 1.7 NNE | 13 5.2 261 450 3.7 122.2 3.8
7/20/22 - 1500 97.5 92.3 18 45.3 0.00 86.3 27.7 2.2 NNE | 30 7.5 262 524 4.4 124.5 3.8
7/20/22 - 1400 94.2 91.1 21 47.3 0.00 85.9 27.7 2.5 NE | 53 5.7 262 494 3.6 131.9 3.8
7/20/22 - 1300 93.0 89.4 23 48.2 0.00 85.7 27.6 2.4 NE | 39 6.2 262 540 3.1 135.8 3.8
7/20/22 - 1200 90.3 87.9 28 51.8 0.00 85.3 27.6 2.2 NE | 39 6.6 262 504 3.2 132.1 3.8
7/20/22 - 1100 88.7 82.6 34 53.6 0.00 85.0 27.6 1.6 NE | 39 5.2 262 485 2.8 133.3 3.8
7/20/22 - 1000 83.0 77.2 38 52.6 0.00 87.3 27.6 1.4 NNE | 29 4.5 263 373 2.9 122.3 3.8
7/20/22 - 0900 77.3 72.3 47 53.0 0.00 88.3 27.8 1.0 ENE | 74 4.0 264 47 2.6 98.8 3.8
7/20/22 - 0800 72.4 68.8 55 53.6 0.00 89.4 27.8 0.7 NE | 50 2.7 266 -24 1.1 71.3 3.8
7/20/22 - 0700 68.9 64.2 61 52.0 0.00 89.4 27.9 0.6 SE | 135 2.2 267 -46 0.9 65.2 3.8
7/20/22 - 0600 66.1 64.8 61 51.3 0.00 87.0 27.9 0.4 SSE | 164 2.3 267 -55 1.3 60.1 3.8
7/20/22 - 0500 66.6 65.3 58 51.0 0.00 85.3 28.0 0.5 S | 178 2.1 267 -64 0.9 60.8 3.8
7/20/22 - 0400 69.2 66.4 55 51.1 0.00 86.8 28.0 0.4 S | 191 1.6 266 -62 0.8 62.4 3.8
7/20/22 - 0300 70.0 68.8 54 52.0 0.00 87.2 28.0 0.0 ESE | 114 1.1 266 -68 0.0 63.7 3.8
7/20/22 - 0200 72.6 69.7 52 52.8 0.00 87.0 28.0 0.1 ESE | 119 1.8 266 -71 0.4 68.0 3.8
7/20/22 - 0100 75.0 72.5 47 52.2 0.00 87.7 28.0 0.2 ENE | 64 1.8 266 -75 0.1 69.9 3.8
7/20/22 - 0000 79.7 74.9 23 35.3 0.00 87.8 28.0 0.7 SSE | 157 3.9 263 -77 2.3 75.2 3.8
7/19/22 - 2300 80.6 78.4 19 33.8 0.00 88.0 28.0 1.7 SSW | 197 4.6 262 -80 2.5 76.9 3.8
7/19/22 - 2200 83.2 80.3 20 36.2 0.00 88.0 28.0 1.6 WSW | 238 4.9 262 -85 3.7 81.6 3.8
7/19/22 - 2100 87.0 83.1 17 35.4 0.00 87.7 28.0 1.0 WNW | 297 4.8 262 -94 4.4 87.7 3.8
7/19/22 - 2000 93.7 86.7 13 32.9 0.00 86.5 28.0 1.4 WNW | 290 6.8 261 -61 4.1 98.0 3.8
7/19/22 - 1900 97.9 93.5 10 30.7 0.00 87.5 27.9 1.8 WNW | 283 5.9 261 65 4.3 105.9 3.8
7/19/22 - 1800 101.0 97.3 9 30.7 0.00 86.9 27.9 1.6 NW | 304 7.3 261 208 6.4 113.4 3.8
7/19/22 - 1700 102.4 100.3 9 33.2 0.00 85.3 27.8 1.5 NW | 318 7.4 261 339 7.1 122.8 3.8
7/19/22 - 1600 102.9 99.6 14 42.8 0.00 86.5 27.7 2.1 N | 358 7.4 261 452 5.7 130.6 3.8
7/19/22 - 1500 102.2 98.6 16 46.2 0.00 86.2 27.7 2.1 NE | 34 6.9 262 534 3.8 149.5 3.8
7/19/22 - 1400 100.2 95.5 17 45.9 0.00 85.8 27.7 2.5 ESE | 112 6.7 262 589 4.4 156.9 3.8
7/19/22 - 1300 96.1 94.1 24 52.7 0.00 85.8 27.6 3.0 NE | 53 7.7 262 587 3.5 151.5 3.8
7/19/22 - 1200 96.4 92.9 22 49.9 0.00 86.1 27.6 1.6 ENE | 60 6.0 262 543 3.1 153.7 3.8
7/19/22 - 1100 92.8 85.0 26 49.6 0.00 88.5 27.6 1.4 WSW | 257 5.0 261 482 4.1 152.1 3.8
7/19/22 - 1000 85.2 78.1 33 50.5 0.00 87.4 27.7 1.0 NNE | 26 3.6 262 378 3.0 131.7 3.8
7/19/22 - 0900 78.2 72.6 43 50.8 0.00 87.0 27.8 0.6 WSW | 258 3.0 264 40 2.4 102.3 3.8
7/19/22 - 0800 72.5 67.8 54 53.0 0.00 83.9 27.9 0.5 NE | 45 2.7 266 -25 1.1 69.0 3.8
7/19/22 - 0700 68.0 64.3 64 52.9 0.00 86.5 28.0 0.2 SE | 142 1.5 268 -47 0.0 63.1 3.8
7/19/22 - 0600 65.6 64.2 64 52.2 0.00 86.8 28.0 0.2 SSE | 151 1.2 268 -67 0.0 61.0 3.8
7/19/22 - 0500 66.5 65.0 62 52.3 0.00 87.2 28.0 0.2 SSE | 168 1.1 268 -114 0.0 62.5 3.8
7/19/22 - 0400 66.7 65.5 60 51.8 0.00 85.3 28.0 0.7 SSE | 166 2.3 268 -165 1.6 63.0 3.8
7/19/22 - 0300 67.9 66.2 57 51.6 0.00 87.4 28.0 0.6 S | 186 2.2 267 -166 0.8 62.8 3.8
7/19/22 - 0200 70.7 67.6 56 52.5 0.00 85.2 28.0 0.2 S | 186 1.6 267 -193 0.5 65.4 3.8
7/19/22 - 0100 71.7 69.6 61 56.5 0.00 84.6 28.0 0.3 ESE | 123 2.1 267 -209 0.9 67.8 3.8
7/19/22 - 0000 73.6 71.6 60 58.0 0.00 85.7 28.0 0.2 E | 88 2.0 267 -207 0.8 69.6 3.8
7/18/22 - 2300 76.0 73.4 58 58.6 0.00 84.9 28.0 0.5 ESE | 110 2.1 267 -244 0.9 73.3 3.8
7/18/22 - 2200 78.8 75.9 53 58.6 0.00 84.8 28.0 0.8 ENE | 57 3.9 266 -225 1.8 77.1 3.8
7/18/22 - 2100 84.2 78.7 45 57.5 0.00 85.5 28.0 1.1 E | 89 4.0 266 -155 2.2 84.0 3.8
7/18/22 - 2000 94.3 84.1 33 55.6 0.00 88.1 28.0 1.0 ENE | 65 3.7 264 -139 2.6 94.7 3.8
7/18/22 - 1900 98.1 93.8 19 46.6 0.00 88.6 28.0 1.5 WNW | 290 5.6 262 -67 5.2 100.7 3.8
7/18/22 - 1800 99.0 97.6 19 49.7 0.00 88.4 27.9 2.4 W | 279 8.8 262 2 5.7 110.8 3.8
7/18/22 - 1700 99.5 97.6 22 52.9 0.00 87.1 27.8 4.4 SW | 234 10.9 262 135 8.1 123.2 3.8
7/18/22 - 1600 100.9 96.9 22 53.8 0.00 86.2 27.7 3.9 SSW | 197 11.4 263 243 6.4 128.1 3.8
7/18/22 - 1500 99.8 97.1 26 57.3 0.00 85.1 27.7 2.2 ENE | 58 6.5 263 317 3.3 135.7 3.8
7/18/22 - 1400 98.8 94.6 29 58.6 0.00 85.4 27.7 2.4 NE | 49 5.8 263 387 3.4 140.8 3.8
7/18/22 - 1300 95.7 93.5 29 57.8 0.00 85.2 27.6 2.2 NE | 47 6.1 263 423 3.8 148.3 3.8
7/18/22 - 1200 94.5 88.4 31 57.2 0.00 85.0 27.6 1.8 NE | 39 5.5 263 433 2.8 144.3 3.8
7/18/22 - 1100 89.2 84.5 37 57.9 0.00 85.2 27.6 1.7 ENE | 63 5.9 263 303 3.5 138.5 3.8
7/18/22 - 1000 85.3 79.7 44 58.7 0.00 85.5 27.7 1.8 NE | 53 5.6 263 163 3.3 127.6 3.8
7/18/22 - 0900 79.7 78.4 50 58.7 0.00 85.6 27.8 1.5 NE | 51 4.3 265 -174 1.9 101.5 3.8
7/18/22 - 0800 78.7 73.0 53 57.6 0.00 85.4 27.8 0.4 ESE | 120 2.5 266 -178 1.5 79.2 3.8
7/18/22 - 0700 73.1 68.2 66 57.8 0.00 85.7 27.9 0.5 SSE | 164 3.1 268 -231 2.6 71.0 3.8
7/18/22 - 0600 70.4 68.5 66 57.4 0.00 85.7 27.9 0.4 S | 174 2.4 268 -256 1.7 66.8 3.8
7/18/22 - 0500 72.4 70.0 62 57.5 0.00 86.3 28.0 0.5 S | 175 2.3 268 -257 1.8 71.5 3.8
7/18/22 - 0400 72.4 71.2 61 57.5 0.00 86.7 27.9 0.3 SE | 141 2.4 268 -267 1.2 72.0 3.8
7/18/22 - 0300 72.4 71.6 57 56.3 0.00 87.0 28.0 0.3 ESE | 118 2.9 267 -254 0.6 72.1 3.8
7/18/22 - 0200 72.7 71.6 55 55.4 0.00 85.9 28.0 0.3 SSE | 160 1.7 267 -250 0.5 72.3 3.8
7/18/22 - 0100 72.3 70.7 56 54.6 0.00 87.4 28.0 0.3 SSE | 147 1.8 267 -240 0.0 71.9 3.8
7/18/22 - 0000 72.9 70.8 55 54.5 0.00 84.6 28.0 0.3 S | 183 2.1 266 -265 1.4 70.9 3.8
7/17/22 - 2300 74.5 72.8 53 55.3 0.00 86.3 28.0 0.6 ENE | 75 3.8 266 -277 1.8 74.1 3.8
7/17/22 - 2200 76.8 74.4 49 54.8 0.00 86.9 28.0 1.1 SE | 131 3.6 266 -252 2.0 74.8 3.8
7/17/22 - 2100 80.7 76.6 45 55.5 0.00 84.0 28.0 0.8 NE | 45 3.7 266 -272 2.4 80.3 3.8
7/17/22 - 2000 85.0 80.5 42 56.7 0.00 83.9 28.0 0.9 NNE | 23 6.2 265 -234 1.6 92.1 3.8
7/17/22 - 1900 90.8 84.8 29 51.9 0.00 86.5 28.0 2.4 ENE | 78 6.7 264 -119 3.8 100.9 3.8
7/17/22 - 1800 94.0 89.7 25 51.2 0.00 86.4 27.9 4.1 S | 178 9.5 263 15 5.5 112.3 3.8
7/17/22 - 1700 98.2 93.8 27 57.1 0.00 85.9 27.8 2.4 NNE | 31 8.8 263 148 5.0 121.7 3.8
7/17/22 - 1600 97.7 94.2 25 54.7 0.00 85.7 27.7 3.9 SSE | 157 8.9 263 262 5.3 125.5 3.8
7/17/22 - 1500 98.2 90.3 32 59.0 0.00 85.3 27.7 5.5 S | 182 12.7 263 388 7.3 145.7 3.8
7/17/22 - 1400 103.3 95.2 20 50.8 0.00 85.3 27.6 2.4 ESE | 113 8.7 263 574 5.5 166.0 3.8
7/17/22 - 1300 100.4 93.9 20 48.5 0.00 85.2 27.5 1.6 ENE | 63 5.7 261 590 4.9 - 3.8
7/17/22 - 1200 94.8 90.6 28 55.0 0.00 85.0 27.6 1.3 NNE | 18 4.6 263 558 4.5 155.5 3.8
7/17/22 - 1100 91.3 84.5 37 58.1 0.00 84.5 27.6 1.6 NE | 34 5.8 263 459 4.1 143.6 3.8
7/17/22 - 1000 86.2 78.0 44 58.3 0.00 85.2 27.7 0.9 NNE | 32 3.7 264 372 2.9 135.2 3.8
7/17/22 - 0900 78.0 73.8 56 58.4 0.00 85.6 27.8 1.1 NE | 52 3.7 266 53 2.5 102.2 3.8
7/17/22 - 0800 73.8 69.3 61 58.0 0.00 85.9 27.8 0.8 NE | 55 3.1 268 -11 1.0 74.5 3.8
7/17/22 - 0700 69.5 66.2 70 57.1 0.00 86.1 27.9 0.3 SSE | 148 2.0 269 -32 0.0 67.0 3.8
7/17/22 - 0600 67.4 65.8 70 56.4 0.00 85.8 27.9 0.3 SSE | 164 1.9 269 -46 0.0 63.1 3.8
7/17/22 - 0500 67.5 66.2 69 56.2 0.00 83.1 27.9 0.5 SSE | 167 2.3 269 -47 0.8 63.2 3.8
7/17/22 - 0400 67.7 66.3 67 55.9 0.00 83.9 27.9 0.3 S | 173 1.2 268 -48 0.9 62.4 3.8
7/17/22 - 0300 68.2 66.9 67 56.0 0.00 86.3 28.0 0.4 SSE | 166 1.7 268 -50 0.0 64.4 3.8
7/17/22 - 0200 68.8 67.9 65 56.0 0.00 86.6 28.0 0.2 S | 180 1.1 268 -51 0.0 65.1 3.8
7/17/22 - 0100 69.8 68.3 62 55.5 0.00 86.8 28.0 0.3 S | 190 1.6 268 -53 0.8 65.1 3.8
7/17/22 - 0000 70.1 69.4 60 55.4 0.00 86.3 28.0 0.4 S | 171 1.3 267 -56 0.0 66.1 3.8
7/16/22 - 2300 72.8 69.9 58 55.5 0.00 85.4 28.0 0.3 SE | 142 2.7 267 -60 0.9 70.2 3.8
7/16/22 - 2200 75.2 72.7 57 57.3 0.00 84.3 28.0 0.8 NE | 47 2.8 267 -67 2.2 75.1 3.8
7/16/22 - 2100 82.9 75.1 50 58.3 0.00 83.6 28.0 1.4 NE | 49 3.5 266 -73 2.1 83.2 3.8
7/16/22 - 2000 93.3 82.8 38 58.9 0.00 83.3 27.9 1.5 NE | 47 3.9 265 -44 2.2 94.9 3.8
7/16/22 - 1900 97.1 93.2 28 57.0 0.00 83.0 27.9 1.3 NE | 40 4.5 263 69 1.8 101.2 3.8
7/16/22 - 1800 99.7 96.6 26 57.7 0.00 83.0 27.8 1.8 NE | 47 4.2 263 209 2.7 109.9 3.8
7/16/22 - 1700 101.5 99.5 24 57.3 0.00 82.4 27.7 2.0 ENE | 62 6.5 263 340 4.0 115.2 3.8
7/16/22 - 1600 102.8 100.1 24 58.3 0.00 81.9 27.7 2.2 NE | 43 5.8 263 454 3.1 122.8 3.8
7/16/22 - 1500 102.6 99.6 26 60.2 0.00 81.4 27.7 2.1 NE | 38 6.4 263 537 2.4 138.4 3.8
7/16/22 - 1400 101.5 98.6 28 61.8 0.00 83.9 27.6 2.4 ENE | 57 7.0 263 588 4.2 145.3 3.8
7/16/22 - 1300 100.3 95.0 31 61.1 0.00 81.0 27.5 1.7 NE | 51 5.0 263 594 2.7 147.4 3.8
7/16/22 - 1200 95.7 91.2 34 60.9 0.00 81.2 27.5 1.8 NE | 51 4.6 263 561 4.1 143.7 3.8
7/16/22 - 1100 91.4 86.9 38 60.1 0.00 81.2 27.5 1.7 NE | 35 4.6 263 492 2.8 139.3 3.8
7/16/22 - 1000 86.7 78.5 46 59.8 0.00 87.4 27.6 0.9 NNE | 22 3.3 264 392 2.4 133.3 3.8
7/16/22 - 0900 78.3 72.5 57 58.8 0.00 84.8 27.7 0.8 NNE | 31 2.8 266 51 2.4 102.9 3.8
7/16/22 - 0800 72.5 67.9 67 58.4 0.00 84.6 27.7 0.4 SSE | 149 3.4 269 -8 1.8 70.6 3.8
7/16/22 - 0700 68.0 65.4 75 58.1 0.00 84.9 27.8 0.2 SE | 125 1.6 270 -31 0.8 65.9 3.8
7/16/22 - 0600 66.1 65.0 75 57.6 0.00 87.0 27.8 0.2 SE | 140 1.5 270 -45 0.0 63.2 3.8
7/16/22 - 0500 66.6 65.7 73 57.1 0.00 85.0 27.9 0.3 S | 173 1.7 270 -47 0.0 62.9 3.8
7/16/22 - 0400 67.6 66.4 70 57.1 0.00 83.8 27.9 0.2 SSE | 162 1.4 269 -47 0.6 63.2 3.8
7/16/22 - 0300 67.4 66.4 70 56.8 0.00 83.2 27.9 0.5 S | 186 1.9